x

8776604 - Baffin Bay; Point Of Rocks, Tx (babt2) Weather Station

2:18am - Wed 26th Sep 2018 All times are CDT. -5 hours from GMT.

  • Wind
    17mph, 24mph gusts
  • Sea Temp 83°f
  • Air Temp 83°f
  • Sea Pressure 1014.3mb
  • 8776604 - Baffin Bay; Point Of Rocks, Tx
  • 8776604 - Baffin Bay; Point Of Rocks, Tx

More Historic Weather Station data

Upgrade to MSW Pro to gain access to the past 30 days of data for over 8000 Wavebouys and Weather Stations around the globe.

Join

Comparision Forecast

View Surf forecast
   
Wed 09/26 2:18am 17 24 mph 1014.3mb 83f 83f
2:12am 18 25 mph - - -
2:06am 18 23 mph 1014.4mb 83f 83f
2:00am 17 22 mph 1014.4mb 83f 83f
1:54am 18 24 mph 1014.3mb 83f 83f
1:48am 21 24 mph 1014.3mb 83f 83f
1:42am 20 25 mph 1014.3mb 83f 83f
1:36am 20 25 mph 1014.3mb 83f 83f
1:30am 16 22 mph 1014.3mb 83f 83f
1:24am 18 24 mph 1014.3mb 83f 83f
1:18am 16 22 mph 1014.3mb 83f 83f
1:12am 16 24 mph 1014.4mb 83f 83f
1:06am 16 21 mph 1014.3mb 83f 83f
1:00am 18 23 mph 1014.4mb 83f 83f
12:54am 18 23 mph 1014.3mb 83f 83f
12:48am 18 26 mph 1014.3mb 83f 83f
12:42am 18 24 mph 1014.2mb 83f 83f
12:36am 20 26 mph 1014.3mb 83f 83f
12:30am 18 25 mph 1014.4mb - -
12:24am 17 24 mph 1014.4mb 83f 83f
12:18am 20 23 mph 1014.3mb 83f 84f
12:12am 18 23 mph 1014.4mb 84f 84f
12:06am 17 22 mph 1014.4mb 84f 83f
12:00am 18 23 mph 1014.4mb - -
Tue 09/25 11:54pm 18 23 mph 1014.4mb 84f 84f
11:48pm 18 23 mph 1014.4mb 84f 84f
11:42pm 21 23 mph 1014.3mb 84f 84f
11:36pm 17 22 mph 1014.4mb 84f 84f
11:30pm 18 22 mph 1014.4mb - -
11:24pm 16 22 mph 1014.4mb 84f 84f
11:18pm 17 24 mph 1014.2mb 84f 84f
11:12pm 17 24 mph 1014.2mb 85f 84f
11:06pm 17 23 mph 1014.2mb 85f 84f
11:00pm 16 22 mph 1014.2mb 85f 84f
10:54pm 18 22 mph 1014.1mb 85f 84f
10:48pm 15 21 mph 1014.1mb 85f 84f
10:42pm 17 22 mph 1014.1mb 85f 84f
10:36pm 18 22 mph 1014.1mb 85f 84f
10:30pm 18 24 mph 1014mb 85f 84f
10:24pm 21 23 mph 1013.9mb 85f 84f
10:18pm 16 21 mph 1013.9mb 85f 84f
10:12pm 17 22 mph 1013.8mb 85f 84f
10:06pm 20 26 mph 1013.8mb 85f 84f
10:00pm 20 25 mph 1013.7mb 85f 84f
9:54pm 17 22 mph 1013.7mb 85f 84f
9:48pm 20 24 mph 1013.6mb 85f 84f
9:42pm 17 24 mph 1013.5mb 85f 84f
9:36pm 21 26 mph 1013.4mb 85f 84f
9:30pm 20 25 mph 1013.4mb 85f 84f
9:24pm 22 26 mph 1013.3mb 85f 84f
9:18pm 20 25 mph - - -
9:12pm 22 28 mph 1013.1mb 85f 84f
9:06pm 20 25 mph 1013.1mb 86f 84f
9:00pm 22 26 mph 1013mb 86f 84f
8:54pm 18 25 mph 1012.9mb 86f 84f
8:48pm 17 23 mph 1012.8mb 86f -
8:42pm 21 26 mph 1012.7mb 86f 84f
8:36pm 21 24 mph 1012.5mb 87f 84f
8:30pm 18 25 mph 1012.5mb 87f 84f
8:24pm 21 25 mph 1012.3mb 87f 84f
8:18pm 18 23 mph 1012.3mb 87f 84f
8:12pm 20 24 mph 1012.2mb 87f 84f
8:06pm 20 23 mph 1012.2mb 87f 84f
8:00pm 16 23 mph 1012.1mb 87f 84f
7:54pm 18 24 mph 1012mb 87f 84f
7:48pm 20 24 mph 1011.9mb 87f 84f
7:42pm 20 23 mph 1011.8mb 87f 84f
7:36pm 18 24 mph 1011.8mb 88f 84f
7:30pm 18 24 mph 1011.8mb 88f 85f
7:24pm 20 24 mph 1011.7mb 88f 84f
7:18pm 17 24 mph - - -
7:12pm 18 25 mph 1011.6mb 88f 84f
7:06pm 18 24 mph 1011.6mb 88f 85f
7:00pm 17 24 mph 1011.6mb 88f 85f
5:54pm 18 23 mph 1011.4mb 89f 85f
5:48pm 18 22 mph 1011.4mb 89f 85f
5:42pm 18 23 mph 1011.4mb 90f 85f
5:36pm 16 23 mph 1011.4mb 90f 85f
5:30pm 20 24 mph 1011.4mb 90f 85f
5:24pm 18 23 mph 1011.4mb 90f 85f
5:18pm 17 23 mph 1011.5mb - -
5:12pm 18 23 mph 1011.5mb 90f 86f
5:06pm 16 23 mph 1011.5mb 90f 85f
5:00pm 20 22 mph 1011.4mb 90f 85f
4:18pm 18 23 mph - - -
4:12pm 17 23 mph 1011.4mb 89f 85f
4:06pm 16 22 mph 1011.4mb 89f 85f
4:00pm 20 23 mph 1011.5mb 89f 85f
3:54pm 16 22 mph 1011.5mb 89f 85f
3:48pm 18 22 mph 1011.6mb 89f 85f
3:42pm 18 22 mph 1011.6mb 89f 85f
3:36pm 20 22 mph 1011.6mb 89f 85f
3:30pm 16 21 mph 1011.8mb 89f 86f
3:24pm 17 23 mph 1011.8mb 89f 86f
3:18pm 17 21 mph 1011.9mb 89f 86f
3:12pm 18 22 mph 1012mb 89f 85f
3:06pm 15 22 mph 1012.1mb 88f 86f
3:00pm 17 22 mph 1012.1mb 88f 85f
2:18pm 16 22 mph 1012.6mb 88f 85f
2:12pm 16 21 mph 1012.6mb 88f 85f
2:06pm 17 22 mph 1012.7mb 87f 85f
2:00pm 16 22 mph 1012.8mb 87f 85f
1:54pm 16 21 mph 1012.8mb 87f 86f
1:48pm 16 20 mph - - -
1:42pm 15 20 mph 1013mb 87f 86f
1:36pm 15 18 mph 1013.1mb 87f 85f
1:30pm 15 18 mph 1013.2mb 87f 85f
1:24pm 14 18 mph 1013.3mb 87f 85f
1:18pm 13 20 mph 1013.4mb 86f 85f
1:12pm 15 20 mph 1013.5mb 86f 85f
1:06pm 16 20 mph 1013.6mb 86f 85f
1:00pm  -  mph 1013.7mb 86f 86f
12:54pm  -  mph 1013.7mb 86f 86f
12:48pm  -  mph 1013.8mb 85f -
12:42pm  -  mph 1013.9mb 85f 86f
12:36pm  -  mph 1013.9mb 85f 85f
12:30pm  -  mph 1014mb 85f 85f
12:24pm  -  mph 1014mb 85f 85f
12:18pm  -  mph 1014mb 85f -
12:12pm  -  mph 1014.1mb 85f 86f
12:06pm  -  mph 1014.1mb 85f 85f
12:00pm  -  mph 1014.1mb 85f 85f
11:54am  -  mph 1014.1mb 85f 85f
11:48am  -  mph 1014.1mb 85f 85f
11:42am  -  mph 1014.1mb 85f 85f
11:36am  -  mph 1014mb 84f 84f
11:30am  -  mph 1014mb 84f 84f
11:24am  -  mph 1014.1mb 84f 84f
11:18am  -  mph 1014.1mb 84f 84f
11:12am  -  mph 1014.1mb 84f 84f
11:06am  -  mph 1014.1mb 84f 84f
11:00am  -  mph 1014.1mb 83f 84f
10:54am  -  mph 1014.1mb 83f 84f
10:48am  -  mph 1014.1mb 83f 84f
10:42am  -  mph 1014.2mb 83f 84f
10:36am  -  mph 1014.2mb 83f 83f
10:30am  -  mph 1014.2mb 83f 83f
10:24am  -  mph 1014.2mb 83f 83f
10:18am  -  mph 1014.1mb 83f 83f
10:12am  -  mph 1014.1mb 83f 83f
10:06am  -  mph 1014mb 83f 83f
10:00am  -  mph 1014mb 83f 83f
9:54am  -  mph 1013.9mb 83f 83f
9:48am  -  mph 1013.9mb 82f 83f
9:42am  -  mph 1013.9mb 82f 83f
9:36am  -  mph 1013.9mb 82f 83f
9:30am  -  mph 1013.8mb 82f 83f
9:24am  -  mph 1013.8mb 82f 83f
9:18am  -  mph 1013.8mb 82f 83f
9:12am  -  mph 1013.8mb 82f 82f
9:06am  -  mph 1013.7mb 82f 82f
9:00am  -  mph 1013.7mb 82f 82f
8:54am  -  mph 1013.6mb 82f 82f
8:48am  -  mph 1013.6mb 82f 82f
8:42am  -  mph 1013.6mb 82f 82f
8:36am  -  mph 1013.6mb 82f 82f
8:30am  -  mph 1013.5mb 82f 82f
8:24am  -  mph 1013.6mb 82f 82f
8:18am  -  mph 1013.5mb 82f 82f
8:12am  -  mph 1013.4mb 82f 82f
8:06am  -  mph 1013.4mb 82f 82f
8:00am  -  mph 1013.3mb 82f 82f
7:42am  -  mph 1013.1mb 82f 82f
7:36am  -  mph 1013mb 82f 82f
7:30am  -  mph 1013mb 82f 82f
7:24am  -  mph 1012.9mb 82f 82f
7:18am  -  mph 1012.9mb 82f 82f
7:12am  -  mph 1012.9mb 82f 82f
7:06am  -  mph 1012.8mb 82f 82f
7:00am  -  mph 1012.7mb 82f 82f
6:12am  -  mph 1012.5mb 82f 82f
6:06am  -  mph 1012.4mb 83f 82f
6:00am  -  mph 1012.4mb 83f 83f
5:54am  -  mph 1012.3mb 83f 83f
5:48am  -  mph 1012.3mb - -
5:42am  -  mph 1012.3mb - -
5:36am  -  mph 1012.3mb 83f 83f
5:30am  -  mph 1012.3mb 83f 83f
5:24am  -  mph 1012.3mb 83f 83f
5:18am  -  mph 1012.3mb 83f 83f
5:12am  -  mph 1012.4mb 83f 83f
5:06am  -  mph 1012.4mb 83f 83f
5:00am  -  mph 1012.3mb 83f -
4:54am  -  mph 1012.3mb 83f 83f
4:48am  -  mph 1012.3mb 83f 83f
4:42am  -  mph 1012.3mb 83f 83f
4:36am  -  mph 1012.3mb 83f 83f
4:30am  -  mph 1012.4mb 83f 83f
4:24am  -  mph 1012.4mb 83f 83f
4:18am  -  mph 1012.5mb 83f 83f
4:12am  -  mph 1012.4mb 83f 83f
4:06am  -  mph 1012.4mb 83f 83f
4:00am  -  mph 1012.4mb 83f 83f
3:54am  -  mph 1012.5mb 83f 83f
3:48am  -  mph 1012.5mb 83f 83f
3:42am  -  mph 1012.4mb 83f 83f
3:36am  -  mph 1012.4mb 83f 83f
3:30am  -  mph 1012.5mb 83f 83f
3:24am  -  mph 1012.4mb 83f 83f
3:18am  -  mph 1012.4mb 83f 83f
3:12am  -  mph 1012.5mb 83f 83f
3:06am  -  mph 1012.6mb 83f 83f
3:00am  -  mph 1012.6mb 83f 83f
2:12am  -  mph 1012.5mb 83f 83f
2:06am  -  mph 1012.5mb 83f 83f
2:00am  -  mph 1012.6mb 83f 83f
1:54am  -  mph 1012.6mb 83f 83f
1:48am  -  mph 1012.7mb - -
1:42am  -  mph 1012.7mb 84f 83f
1:36am  -  mph 1012.7mb 83f 83f
1:30am  -  mph 1012.7mb 84f 83f
1:24am  -  mph 1012.7mb 84f 83f
1:18am  -  mph 1012.6mb 84f 83f
1:12am  -  mph 1012.7mb 84f 83f
1:06am  -  mph 1012.6mb 84f 83f
1:00am  -  mph 1012.7mb 84f 83f
12:54am  -  mph 1012.7mb 84f 83f
12:48am  -  mph 1012.8mb 84f 83f
12:42am  -  mph 1012.8mb 84f 83f
12:36am  -  mph 1012.8mb 84f 83f
12:30am  -  mph 1012.8mb 84f 83f
12:24am  -  mph 1012.7mb 84f 83f
12:18am  -  mph 1012.7mb 84f 83f
12:12am 15 18 mph 1012.7mb 84f 83f
12:06am 14 18 mph 1012.7mb 85f 83f
12:00am 14 17 mph 1012.7mb 85f 83f
Mon 09/24 11:54pm 14 17 mph 1012.7mb 85f 83f
11:48pm 13 17 mph 1012.7mb 85f 83f
11:42pm 13 17 mph 1012.7mb 85f 83f
11:36pm  -  mph 1012.7mb 85f 83f
11:30pm  -  mph 1012.7mb 85f 83f
11:24pm 14 17 mph 1012.7mb 85f 83f
11:18pm 13 16 mph 1012.6mb 85f 83f
11:12pm 11 16 mph 1012.6mb 86f 83f
11:06pm  -  mph 1012.6mb 86f 83f
11:00pm  -  mph 1012.6mb 86f 83f
10:54pm 14 15 mph 1012.6mb 86f 83f
10:48pm 13 16 mph 1012.6mb 86f 83f
10:42pm  -  mph 1012.5mb 86f 83f
10:36pm  -  mph 1012.4mb 86f 83f
10:30pm 14 16 mph 1012.4mb 86f 83f
10:24pm 14 16 mph 1012.3mb 86f 83f
10:18pm 13 15 mph 1012.3mb 86f 83f
10:12pm 14 16 mph 1012.3mb 86f 83f
10:06pm 14 16 mph 1012.2mb 86f 83f
10:00pm 13 16 mph 1012.2mb 87f 83f
9:54pm 13 15 mph 1012.2mb 87f 83f
9:48pm 11 16 mph 1012.1mb 87f 83f
9:42pm 13 15 mph 1012mb 87f 83f
9:36pm 13 15 mph 1012mb 87f 83f
9:30pm 13 14 mph 1011.9mb 87f 83f
9:24pm 11 15 mph 1011.8mb 87f 83f
9:18pm 11 15 mph 1011.7mb 87f 83f
9:12pm  -  mph 1011.6mb 87f 83f
9:06pm  -  mph 1011.6mb 87f 83f
9:00pm 13 15 mph 1011.4mb 87f 83f
8:54pm 11 14 mph 1011.4mb 87f 83f
8:48pm 11 14 mph 1011.3mb 87f 83f
8:42pm 10 14 mph 1011.3mb 87f 83f
8:36pm 13 15 mph 1011.2mb 87f 83f
8:30pm 14 16 mph 1011.1mb 87f 83f
8:24pm 13 16 mph 1011mb 87f 83f
8:18pm 13 15 mph 1011mb 87f 83f
8:12pm  -  mph 1011mb 87f 83f
8:06pm  -  mph 1011mb 87f 83f
8:00pm  -  mph 1010.9mb 87f 83f
7:54pm  -  mph 1010.9mb 87f 83f
7:48pm  -  mph 1010.8mb 88f 83f
7:42pm  -  mph 1010.8mb 88f 83f
7:36pm  -  mph 1010.8mb 88f 83f
7:30pm  -  mph 1010.8mb 88f 83f
7:24pm  -  mph 1010.7mb 88f 83f
7:18pm  -  mph 1010.7mb 88f 83f
7:12pm 13 15 mph 1010.6mb 88f 83f
7:06pm 11 15 mph 1010.6mb 88f 83f
7:00pm 13 16 mph 1010.6mb 88f 83f
6:54pm 10 14 mph 1010.6mb 88f 83f
6:48pm 10 15 mph 1010.6mb 88f 83f
6:42pm 14 16 mph 1010.6mb 88f 83f
6:36pm 11 15 mph 1010.6mb 88f 83f
6:30pm 14 16 mph 1010.6mb 88f 83f
6:24pm 13 16 mph 1010.7mb 88f 83f
6:18pm 13 17 mph 1010.6mb 88f 83f
6:12pm  -  mph 1010.6mb 88f 83f
6:06pm  -  mph 1010.7mb 88f 83f
6:00pm  -  mph 1010.7mb 88f 83f
5:54pm  -  mph 1010.7mb 88f 83f
5:48pm  -  mph 1010.8mb 88f 84f
5:42pm 11 16 mph 1010.9mb 88f 84f
5:36pm 13 17 mph 1010.8mb 88f 84f
5:30pm 14 17 mph 1010.9mb 88f 83f
5:24pm  -  mph 1011mb 88f 83f
5:18pm  -  mph 1011.1mb 88f 83f
5:12pm  -  mph 1011.1mb 88f 84f
5:06pm 16 18 mph 1011.1mb 88f 83f
5:00pm 16 18 mph 1011.1mb 87f 84f
4:54pm 15 18 mph 1011.2mb 87f 83f
4:48pm 15 18 mph 1011.2mb 87f 84f
4:42pm  -  mph 1011.2mb 87f 84f
4:36pm  -  mph 1011.2mb 87f 84f
4:30pm  -  mph 1011.2mb 87f 84f
4:24pm  -  mph 1011.2mb 87f 84f
4:18pm  -  mph 1011.2mb 87f 84f
4:12pm  -  mph 1011.3mb 87f 84f
4:06pm  -  mph 1011.3mb 87f 84f
4:00pm 11 17 mph 1011.2mb 87f 84f
3:54pm 13 15 mph 1011.4mb 87f 84f
3:48pm 11 16 mph 1011.4mb 87f 84f
3:42pm  -  mph 1011.4mb 87f 84f
3:36pm  -  mph 1011.4mb 87f 84f
3:30pm  -  mph 1011.4mb 87f 84f
3:24pm 10 14 mph 1011.5mb 87f 85f
3:18pm 10 13 mph 1011.6mb 87f 84f
3:12pm  -  mph 1011.6mb 87f 84f
3:06pm  -  mph 1011.7mb 87f 84f
3:00pm 10 13 mph 1011.7mb 86f 84f
2:54pm 9 11 mph 1011.8mb 86f 84f
2:48pm 9 11 mph 1011.9mb 86f 85f
2:42pm  -  mph 1012mb 86f 84f
2:36pm  -  mph 1012mb 86f 84f
2:30pm  -  mph 1012.1mb 86f 84f
2:24pm  -  mph 1012.2mb 86f 84f
2:18pm  -  mph 1012.4mb 86f 84f
2:12pm  -  mph 1012.4mb - -
2:06pm  -  mph 1012.5mb 86f 84f
2:00pm  -  mph 1012.6mb 86f 84f
1:54pm  -  mph 1012.7mb 86f 84f
1:48pm 10 13 mph - - -
1:42pm 10 13 mph 1012.9mb 86f 84f
1:36pm 9 13 mph 1013mb 86f 84f
1:30pm 10 13 mph 1013.1mb 86f 84f
1:24pm 9 13 mph 1013.2mb 86f 85f
1:18pm 9 11 mph 1013.3mb 85f 84f
1:12pm 9 11 mph 1013.3mb 86f 85f
1:06pm  -  mph 1013.4mb 85f 85f
1:00pm  -  mph 1013.4mb 85f 85f
12:12pm  -  mph 1014mb 84f 83f
12:06pm  -  mph 1014mb 84f 83f
12:00pm  -  mph 1014.1mb 84f 83f
11:54am  -  mph 1014.2mb 84f 83f
11:48am  -  mph 1014.3mb 84f 83f
11:42am  -  mph 1014.4mb 84f 83f
11:36am  -  mph 1014.4mb 84f 83f
11:30am  -  mph 1014.4mb 84f 82f
11:24am 9 9 mph 1014.3mb 84f 82f
11:18am 7 9 mph 1014.2mb 84f 82f
11:12am 8 9 mph 1014.2mb 83f 82f
11:06am 8 9 mph 1014.1mb 83f 82f
11:00am 7 9 mph 1014.1mb 83f 82f
10:54am  -  mph 1014mb 83f 82f
10:48am  -  mph 1014mb 83f 82f
10:42am  -  mph 1013.9mb 83f 82f
10:36am  -  mph 1013.9mb 83f 82f
10:30am 10 11 mph 1013.9mb 83f 82f
10:24am 8 10 mph 1013.8mb 83f 82f
10:18am  -  mph 1013.8mb 83f 82f
10:06am  -  mph 1013.7mb 83f 82f
10:00am  -  mph 1013.7mb 83f 82f
9:54am  -  mph 1013.7mb 83f 82f
9:48am  -  mph 1013.6mb 83f 81f
9:42am  -  mph 1013.6mb 83f 81f
9:36am  -  mph 1013.5mb 83f 81f
9:30am 10 13 mph 1013.5mb 83f 81f
9:24am 11 11 mph 1013.5mb 83f 81f
9:18am 10 13 mph 1013.4mb 82f 81f
9:12am 11 13 mph 1013.3mb 82f 80f
9:06am 9 11 mph 1013.3mb 82f 80f
9:00am 9 11 mph - - -
8:54am 9 13 mph 1013.2mb 82f 80f
8:48am 9 11 mph 1013.2mb 82f 79f
8:42am  -  mph 1013.1mb 82f 79f
8:36am  -  mph 1013.1mb 82f 79f
8:30am  -  mph 1013.1mb - -
8:24am  -  mph 1013mb 82f 79f
8:18am  -  mph 1013mb 82f 79f
8:12am 10 13 mph 1013mb 82f 79f
8:06am 11 13 mph 1012.9mb 82f 79f
8:00am 11 13 mph 1012.9mb 82f 79f
7:54am 10 13 mph 1012.9mb 82f 79f
7:48am 11 13 mph 1012.9mb 82f 79f
7:42am  -  mph 1012.8mb 83f 78f
7:36am  -  mph 1012.8mb 83f 78f
7:30am  -  mph 1012.8mb 83f 78f
7:24am  -  mph 1012.8mb 83f 79f
7:18am  -  mph 1012.7mb 83f 79f
7:12am 10 11 mph 1012.7mb 83f 78f
7:06am 9 11 mph 1012.7mb 83f 78f
7:00am 9 11 mph 1012.7mb 83f 78f
6:54am 9 11 mph 1012.6mb 83f 78f
6:48am 10 11 mph 1012.6mb 83f 79f
6:42am 10 11 mph 1012.6mb 83f 79f
6:36am 9 10 mph 1012.6mb 83f 79f
6:30am 9 9 mph 1012.5mb 83f 79f
6:24am  -  mph 1012.5mb 83f 79f
6:18am  -  mph 1012.5mb 83f 79f
6:12am 9 10 mph 1012.4mb 83f 79f
6:06am 8 9 mph 1012.3mb 83f 79f
6:00am  -  mph 1012.3mb 83f 78f
5:12am  -  mph 1012mb 84f 80f
5:06am  -  mph 1012mb 84f 80f
5:00am 10 11 mph 1012mb 84f -
4:54am 9 10 mph 1012mb 84f 80f
4:48am 9 13 mph 1012.1mb 84f 81f
4:42am  -  mph 1012.1mb 84f 81f
4:36am  -  mph 1012.1mb 84f 81f
4:30am  -  mph 1012mb 84f 81f
4:24am  -  mph 1012mb 84f 81f
4:18am  -  mph 1012mb 84f 81f
4:12am  -  mph 1012mb 84f 81f
4:06am  -  mph 1012mb 84f 80f
4:00am  -  mph 1012.1mb 84f 81f
3:54am 9 11 mph 1012.1mb 84f 81f
3:48am 9 11 mph 1012.2mb 84f 80f
3:42am  -  mph 1012.2mb 84f 80f
3:36am  -  mph 1012.2mb 84f 81f
3:30am  -  mph 1012.3mb 84f 81f
3:24am  -  mph 1012.3mb 85f 81f
3:18am  -  mph 1012.3mb 85f 81f
3:12am  -  mph 1012.2mb 85f 81f
3:06am  -  mph 1012.2mb 85f 81f
3:00am  -  mph 1012.2mb 85f 81f
2:54am  -  mph 1012.3mb 85f 81f
2:48am  -  mph 1012.3mb 85f 81f
2:42am 11 14 mph 1012.3mb 85f 81f
2:36am 11 14 mph 1012.4mb 85f 81f
2:30am 11 14 mph 1012.4mb 85f 81f
2:24am  -  mph 1012.4mb 85f 81f
2:18am  -  mph 1012.4mb 85f 81f
2:12am  -  mph 1012.4mb 85f 81f
2:06am  -  mph 1012.5mb 85f 81f
2:00am 11 14 mph 1012.5mb 85f 81f
1:54am 11 14 mph 1012.5mb 85f 81f
1:48am 10 13 mph 1012.5mb 85f 81f
1:42am  -  mph 1012.6mb 85f 81f
1:36am  -  mph 1012.6mb 85f 81f
1:30am  -  mph 1012.7mb 85f 81f
1:24am  -  mph 1012.7mb 85f 81f
1:18am 10 13 mph - - -
1:12am 10 13 mph - - -
1:06am 11 13 mph 1012.8mb 85f 81f
1:00am 9 14 mph 1012.8mb 85f 81f
12:54am 10 14 mph 1012.8mb 86f 81f
12:48am 10 13 mph 1012.8mb 86f 81f
12:42am  -  mph 1012.8mb - -
12:36am  -  mph 1012.8mb - -
12:30am 10 11 mph 1012.9mb 86f 81f
12:24am 9 13 mph 1012.9mb 86f 81f
12:18am 9 11 mph 1012.9mb 86f 81f
12:12am  -  mph 1013mb 86f 81f
12:06am  -  mph 1013mb 86f 81f
12:00am  -  mph 1013mb - -
Sun 09/23 11:54pm  -  mph 1013mb 86f 81f
11:48pm  -  mph 1012.9mb 86f 81f
11:42pm 9 10 mph 1012.8mb 86f 81f
11:36pm 9 10 mph 1012.7mb 86f 81f
11:30pm  -  mph 1012.7mb 86f -
11:24pm  -  mph 1012.6mb 86f 81f
11:18pm  -  mph 1012.6mb 86f 81f
11:12pm 8 9 mph 1012.5mb 86f 81f
11:06pm 7 8 mph 1012.5mb 86f 81f
11:00pm 7 8 mph 1012.5mb 86f 81f
10:54pm 7 9 mph 1012.5mb 86f 81f
10:48pm 6 8 mph 1012.5mb 86f 81f
10:42pm 6 8 mph 1012.4mb 86f 81f
10:36pm 7 9 mph 1012.3mb 86f 81f
10:30pm  -  mph 1012.3mb 86f 81f
10:24pm  -  mph 1012.3mb 86f 81f
10:18pm  -  mph 1012.2mb 86f 81f
10:12pm  -  mph 1012.2mb 86f 81f
10:06pm  -  mph 1012.1mb 86f 81f
10:00pm 8 10 mph 1012.1mb 86f 81f
9:54pm 8 10 mph 1012.2mb 87f 81f
9:48pm 9 10 mph 1012.1mb 87f 81f
9:42pm  -  mph 1012mb 87f 81f
9:36pm  -  mph 1011.9mb 87f 81f
9:30pm 10 13 mph 1011.8mb 87f 81f
9:24pm 9 14 mph 1011.8mb 87f 81f
9:18pm 10 13 mph 1011.7mb 87f 81f
9:12pm 8 10 mph 1011.6mb 87f 82f
9:06pm 8 9 mph 1011.6mb 87f 83f
9:00pm 7 8 mph 1011.6mb 87f 83f
8:54pm 5 8 mph 1011.5mb 87f 83f
8:48pm  -  mph 1011.4mb 87f -
8:42pm  -  mph 1011.4mb 87f 84f
8:36pm  -  mph 1011.3mb 87f 84f
8:30pm 5 6 mph 1011.3mb 87f 84f
8:24pm 6 8 mph 1011.3mb 87f 84f
8:18pm  -  mph 1011.2mb - -
8:12pm  -  mph 1011.1mb 87f 84f
8:06pm  -  mph 1011.1mb 87f 84f
8:00pm  -  mph 1011.1mb 87f 84f
7:48pm 6 6 mph 1011mb 87f 84f
7:42pm 5 7 mph 1010.9mb 87f 84f
7:36pm 6 7 mph 1010.9mb 87f 84f
7:30pm  -  mph 1010.9mb 87f 84f
7:24pm  -  mph 1010.8mb 87f 84f
7:18pm  -  mph 1010.8mb 87f 84f
7:12pm  -  mph 1010.8mb 87f 84f
7:06pm  -  mph 1010.8mb 87f 84f
7:00pm 7 8 mph 1010.8mb 87f 84f
6:54pm 7 9 mph 1010.8mb 87f 84f
6:48pm 7 9 mph 1010.8mb 87f -
6:42pm 7 8 mph 1010.8mb 87f 84f
6:36pm 8 10 mph 1010.8mb 87f 84f
6:30pm  -  mph 1010.8mb 87f 84f
6:24pm  -  mph 1010.9mb 87f 84f
6:18pm  -  mph 1010.8mb 87f 84f
6:12pm  -  mph 1010.8mb 87f 84f
6:06pm  -  mph 1010.8mb 87f 84f
6:00pm 8 9 mph 1010.8mb 87f 84f
5:54pm 8 8 mph 1010.8mb 87f 83f
5:48pm 7 8 mph - - -
5:42pm 7 8 mph - - -
5:36pm 7 9 mph 1010.8mb 87f 83f
5:30pm 6 8 mph 1010.8mb 87f 83f
5:24pm  -  mph 1010.8mb 87f 83f
5:18pm  -  mph 1010.8mb 87f 83f
5:12pm  -  mph 1010.8mb 87f 83f
5:06pm  -  mph 1010.9mb 87f 83f
5:00pm 7 9 mph 1010.9mb 87f 83f
4:54pm 7 9 mph 1010.9mb 87f 83f
4:48pm  -  mph 1010.9mb 87f 83f
4:42pm  -  mph 1010.9mb 87f 83f
4:36pm  -  mph 1010.9mb 86f 83f
4:30pm 7 9 mph 1010.9mb 86f 82f
4:24pm 8 9 mph 1010.9mb 86f 82f
4:18pm 7 9 mph 1011mb 86f 82f
4:12pm 8 10 mph 1011mb 86f 82f
4:06pm 8 9 mph 1011.1mb 86f 82f
4:00pm  -  mph 1011.1mb 86f 82f
3:54pm  -  mph 1011.2mb 86f 82f
3:48pm  -  mph 1011.3mb - -
3:42pm  -  mph 1011.5mb 86f 81f
3:36pm  -  mph 1011.5mb 86f 81f
3:30pm  -  mph 1011.7mb 85f 80f
3:24pm  -  mph 1011.8mb 85f 81f
3:18pm 9 11 mph 1012mb 85f 80f
3:12pm 9 11 mph 1012.1mb 85f 80f
3:06pm 9 10 mph 1012.2mb 85f 80f
3:00pm  -  mph 1012.3mb 85f 80f
2:54pm  -  mph 1012.3mb 85f 80f
2:48pm  -  mph 1012.4mb 85f 79f
2:42pm  -  mph 1012.6mb 85f 79f
2:36pm  -  mph 1012.7mb 85f 79f
2:30pm 8 10 mph 1012.8mb 84f 79f
2:24pm 8 9 mph 1013mb 84f 79f
2:18pm 7 10 mph 1013.1mb - -
2:12pm 8 10 mph 1013.3mb 84f 79f
2:06pm 8 11 mph 1013.4mb 84f 79f
2:00pm  -  mph 1013.6mb 84f 79f
1:54pm  -  mph 1013.7mb 84f 79f
1:48pm  -  mph 1013.8mb 84f 79f
1:42pm  -  mph 1013.9mb 84f 79f
1:36pm  -  mph 1013.9mb 84f 79f
1:30pm  -  mph 1014mb 84f 79f
1:24pm  -  mph 1014.2mb 84f 79f
1:18pm  -  mph 1014.3mb 84f 78f
1:12pm 9 11 mph 1014.3mb 84f 79f
1:06pm 9 11 mph 1014.5mb 84f 79f
1:00pm 9 10 mph 1014.5mb 84f 79f
12:54pm 8 11 mph 1014.6mb 83f 79f
12:48pm 9 11 mph 1014.6mb 83f 78f
12:42pm 9 11 mph 1014.7mb 83f 78f
12:36pm 8 10 mph 1014.7mb 83f 78f
12:30pm 10 11 mph 1014.8mb 83f 78f
12:24pm  -  mph 1014.9mb 83f 78f
12:18pm  -  mph 1014.9mb 83f 78f
12:12pm 9 11 mph 1015mb 83f 78f
12:06pm 9 11 mph 1015mb 83f 78f
12:00pm 7 8 mph 1015.1mb 82f 78f
11:54am  -  mph 1015.1mb 82f 78f
11:48am  -  mph 1015.1mb 82f 78f
11:42am 6 11 mph 1015.2mb 82f 78f
11:36am 7 8 mph 1015.1mb 82f 78f
11:30am  -  mph 1015.1mb 82f 78f
11:24am  -  mph 1015.2mb 82f 78f
11:18am  -  mph 1015.2mb 82f 78f
11:12am  -  mph 1015.2mb 82f 78f
11:06am  -  mph 1015.2mb 82f 78f
11:00am  -  mph 1015.1mb 82f -
10:54am  -  mph 1015.1mb 82f 78f
10:48am  -  mph 1015.2mb 82f 77f
10:42am 6 9 mph 1015.1mb 82f 77f
10:36am 8 10 mph 1015.1mb 82f 77f
10:30am 7 10 mph 1015.1mb 82f 77f
10:24am 8 10 mph 1015.1mb 82f 77f
10:18am 8 10 mph 1015mb 82f 76f
10:12am  -  mph 1015mb 82f 77f
10:06am  -  mph 1014.9mb 82f 76f
10:00am  -  mph 1014.8mb 82f 76f
9:54am 8 9 mph 1014.8mb 82f 76f
9:48am 7 10 mph 1014.7mb 82f 76f
9:42am 8 10 mph 1014.7mb 82f 76f
9:36am 9 10 mph 1014.6mb 82f 76f
9:30am 8 9 mph 1014.6mb 82f 75f
9:24am  -  mph 1014.5mb 82f 75f
9:18am  -  mph 1014.4mb 82f 75f
9:12am  -  mph 1014.5mb 82f 75f
9:06am  -  mph 1014.4mb 82f 75f
9:00am  -  mph 1014.3mb 82f 74f
8:12am 6 7 mph 1014mb 82f 73f
8:06am 6 7 mph 1013.9mb 82f 73f
8:00am 7 8 mph 1013.9mb 82f 73f
7:54am 7 8 mph 1013.8mb 82f 73f
7:48am  -  mph 1013.7mb 82f 73f
7:42am  -  mph 1013.6mb 83f 73f
7:36am  -  mph 1013.5mb 83f 73f
7:30am  -  mph 1013.4mb 83f 73f
7:24am  -  mph 1013.4mb 83f 73f
7:18am  -  mph 1013.5mb 83f 74f
7:12am  -  mph 1013.4mb 83f 73f
7:06am  -  mph 1013.3mb 83f 74f
7:00am  -  mph 1013.3mb 83f 74f
6:12am  -  mph 1013.1mb 84f 74f
6:06am  -  mph 1013mb 84f 74f
6:00am  -  mph 1012.9mb 84f 74f
5:54am  -  mph 1013mb 84f 74f
5:48am 6 8 mph - - -
5:36am 7 9 mph 1013mb 84f 75f
5:30am 8 9 mph 1013mb 84f 75f
5:24am 8 10 mph 1013mb 84f 75f
5:18am 8 11 mph 1013mb 84f 75f
5:12am  -  mph 1012.8mb 84f 75f
5:06am  -  mph 1012.8mb 84f 75f
5:00am  -  mph 1012.8mb 84f 75f
4:54am  -  mph 1012.8mb 84f 75f
4:48am  -  mph 1012.8mb 84f 75f
4:42am  -  mph 1012.9mb 84f 75f
4:36am  -  mph 1013mb 84f 76f
4:30am  -  mph 1012.9mb 84f -
4:24am  -  mph 1012.9mb 84f 76f
4:18am  -  mph 1012.9mb 84f 76f
4:12am  -  mph 1012.9mb 84f 76f
4:06am  -  mph 1013mb 84f 76f
4:00am  -  mph 1013mb 84f 77f
3:54am  -  mph 1013.1mb 84f 77f
3:48am  -  mph 1013.2mb 84f 76f
3:42am 10 11 mph 1013.3mb 84f 77f
3:36am 10 11 mph 1013.3mb 84f 77f
3:30am  -  mph 1013.4mb 84f 77f
3:24am  -  mph 1013.4mb 84f 77f
3:18am  -  mph 1013.4mb 85f 77f
3:12am  -  mph 1013.4mb 85f 77f
3:06am  -  mph 1013.4mb 85f 77f
3:00am  -  mph 1013.4mb 85f 77f
2:54am  -  mph 1013.4mb 85f 77f
2:48am  -  mph 1013.4mb 85f 77f
2:42am  -  mph 1013.4mb 85f 77f
2:36am  -  mph 1013.3mb 85f 77f
2:30am  -  mph 1013.3mb 85f 77f
2:24am  -  mph 1013.3mb 85f 77f
2:18am  -  mph 1013.3mb 85f 77f
2:12am  -  mph 1013.4mb 85f 77f
2:06am  -  mph 1013.5mb 85f 78f
2:00am  -  mph 1013.5mb 85f 77f
1:54am  -  mph 1013.6mb 85f 77f
1:48am  -  mph 1013.6mb 85f 78f
1:42am 13 16 mph 1013.6mb 85f 78f
1:36am 14 16 mph 1013.6mb 85f 78f
1:30am 14 15 mph 1013.7mb 85f 78f
1:24am  -  mph 1013.7mb 85f 78f
1:18am  -  mph 1013.7mb 85f 78f
1:12am 11 14 mph 1013.8mb 85f 78f
1:06am 13 14 mph 1013.8mb 85f 78f
1:00am 13 16 mph 1013.8mb 85f 78f
12:54am  -  mph 1013.8mb 85f 79f
12:48am  -  mph 1013.8mb 85f 78f
12:42am  -  mph 1013.9mb 85f -
12:36am  -  mph 1013.9mb 85f -
12:30am 11 13 mph 1014mb 85f 79f
12:24am 10 13 mph 1014mb 85f 79f
12:18am 11 13 mph 1014mb 85f 79f
12:12am  -  mph 1014mb 85f 79f
12:06am  -  mph 1014.1mb 85f 79f
12:00am 9 10 mph 1014.1mb 85f 79f
Sat 09/22 11:54pm 8 9 mph 1014.1mb 86f 79f
11:48pm 8 10 mph 1014mb 86f 80f
11:42pm  -  mph 1014mb 86f 79f
11:36pm  -  mph 1014mb 86f 80f
11:30pm  -  mph 1014mb 86f 80f
11:24pm  -  mph 1014.1mb 86f 80f
11:18pm  -  mph 1014.1mb 86f 80f
11:12pm 7 9 mph 1014.1mb 86f 80f
11:06pm 8 9 mph 1014.2mb 86f 80f
11:00pm  -  mph 1014.1mb 86f 80f
10:12pm  -  mph 1013.8mb 86f 80f
10:06pm  -  mph 1013.8mb 87f 80f
10:00pm  -  mph 1013.8mb 87f 81f
9:54pm 11 14 mph 1013.7mb 87f 80f
9:48pm 10 11 mph 1013.7mb 87f 81f
9:42pm 9 11 mph 1013.6mb 87f 81f
9:36pm 10 11 mph 1013.6mb 87f 81f
9:30pm  -  mph 1013.5mb - -
9:24pm  -  mph 1013.4mb 87f 81f
9:18pm  -  mph 1013.4mb 87f 81f
9:12pm  -  mph 1013.4mb 87f 81f
9:06pm  -  mph 1013.3mb 87f 81f
9:00pm  -  mph 1013.1mb 87f 81f
8:54pm  -  mph 1013.1mb 87f 81f
8:48pm  -  mph 1013mb 87f 81f
8:42pm  -  mph 1013mb 87f 82f
8:36pm  -  mph 1012.9mb 87f 82f
8:30pm 8 11 mph 1012.7mb 87f 82f
8:24pm 9 11 mph 1012.5mb 87f 82f
8:18pm 9 11 mph 1012.3mb 87f 82f
8:12pm 9 11 mph 1012.2mb 87f 82f
8:06pm 8 9 mph 1012.2mb 87f 82f
8:00pm  -  mph 1012.2mb 87f 82f
7:42pm  -  mph 1012.3mb 87f 82f
7:36pm  -  mph 1012.2mb 87f 82f
7:30pm 8 10 mph 1012.4mb 87f 82f
7:24pm 10 15 mph 1012.5mb 87f 82f
7:18pm 11 16 mph 1012.3mb 87f 83f
7:12pm  -  mph 1012.2mb 87f 83f
7:06pm  -  mph 1012.2mb 87f 83f
7:00pm  -  mph 1012.2mb 88f 83f
6:54pm  -  mph 1012mb 88f 84f
6:48pm  -  mph 1011.9mb 88f 84f
6:42pm  -  mph 1011.9mb 88f 85f
6:36pm  -  mph 1011.7mb 88f 85f
6:30pm  -  mph 1011.6mb 88f 84f
6:24pm  -  mph 1011.5mb 88f 85f
6:18pm  -  mph 1011.4mb 88f 85f
6:12pm  -  mph 1011.4mb 88f 85f
6:06pm  -  mph 1011.5mb 88f 85f
6:00pm 3 7 mph 1011.4mb 88f 85f
5:54pm 6 7 mph 1011.3mb 88f 85f
5:48pm 7 8 mph 1011.4mb 88f 85f
5:42pm 6 7 mph 1011.4mb 88f 85f
5:36pm 6 9 mph 1011.4mb 88f 86f
5:30pm  -  mph 1011.4mb 88f 85f
5:24pm  -  mph 1011.5mb 88f 85f
5:18pm  -  mph 1011.5mb 88f 85f
5:12pm 8 9 mph 1011.5mb 88f 85f
5:06pm 7 9 mph 1011.4mb 88f 85f
5:00pm 8 9 mph - - -
4:54pm 8 9 mph 1011.5mb 88f 85f
4:48pm 7 9 mph 1011.5mb 88f 85f
4:42pm 7 9 mph 1011.5mb 88f 85f
4:36pm 8 10 mph 1011.5mb 88f 85f
4:30pm  -  mph 1011.5mb 88f 85f
4:24pm  -  mph 1011.6mb 88f 85f
4:18pm  -  mph 1011.7mb 88f 85f
4:12pm  -  mph 1011.8mb 88f 85f
4:06pm  -  mph 1011.9mb 88f 85f
4:00pm  -  mph 1011.9mb 87f 85f
3:54pm 8 11 mph 1012mb 87f 85f
3:48pm 7 9 mph 1012mb 87f 85f
3:42pm  -  mph 1012mb 87f 85f
3:36pm  -  mph 1012.1mb 87f 85f
3:30pm  -  mph 1012.1mb 87f 85f
3:24pm  -  mph 1012.2mb 87f 85f
3:18pm  -  mph 1012.2mb 87f 85f
3:12pm  -  mph 1012.3mb 87f 85f
3:06pm  -  mph 1012.4mb 87f 85f
3:00pm  -  mph 1012.4mb 87f 84f
2:54pm  -  mph 1012.4mb 87f 85f
2:48pm  -  mph 1012.5mb 87f 84f
2:42pm  -  mph 1012.6mb 87f 84f
2:36pm  -  mph 1012.6mb 87f 84f
2:30pm  -  mph 1012.7mb 87f 84f
2:24pm  -  mph 1012.8mb 87f 84f
2:18pm  -  mph 1012.9mb 87f 84f
2:12pm  -  mph 1013mb 87f 84f
2:06pm  -  mph 1013mb 86f 83f
2:00pm  -  mph 1013.1mb 86f 83f
1:54pm  -  mph 1013.1mb 86f 83f
1:48pm  -  mph 1013.1mb 86f 83f
1:42pm 9 11 mph 1013.2mb 86f 83f
1:36pm 10 13 mph 1013.3mb 86f 83f
1:30pm 9 11 mph 1013.4mb 86f 83f
1:24pm 9 10 mph 1013.5mb 86f 83f
1:18pm 8 9 mph 1013.6mb 86f 83f
1:12pm 9 10 mph 1013.6mb 86f 83f
1:06pm 9 14 mph 1013.7mb 86f 83f
1:00pm 10 13 mph 1013.8mb 86f 83f
12:54pm 10 11 mph 1013.8mb 85f 83f
12:48pm 10 11 mph 1013.8mb 85f 82f
12:42pm 9 11 mph 1013.7mb 85f 83f
12:36pm 10 11 mph 1013.7mb 85f 82f
12:30pm  -  mph 1013.7mb 85f 82f
12:24pm  -  mph 1013.7mb 85f 83f
12:18pm  -  mph 1013.9mb 85f 82f
12:12pm  -  mph 1014mb 85f 82f
12:06pm  -  mph 1014mb 85f 82f
12:00pm  -  mph 1014.1mb 85f 82f
11:54am  -  mph 1014.2mb 85f 82f
11:48am  -  mph 1014.2mb 85f 81f
11:42am 11 13 mph 1014.2mb 85f 81f
11:36am 11 14 mph 1014.2mb 85f 81f
11:30am 13 14 mph 1014.2mb 85f 81f
11:24am 11 14 mph 1014.2mb 85f 81f
11:18am 13 15 mph 1014.2mb 85f 81f
11:12am 14 17 mph 1014.2mb 85f 81f
11:06am 14 16 mph 1014.3mb 85f 81f
11:00am 15 17 mph 1014.3mb 85f 80f
10:54am 15 18 mph 1014.2mb 85f 81f
10:48am 16 18 mph 1014.2mb 85f 80f
10:42am 15 20 mph 1014.1mb 85f 80f
10:36am 14 17 mph 1014.1mb 85f 81f
10:30am 15 18 mph 1014mb 84f 81f
10:24am 14 20 mph 1013.9mb 84f 81f
10:18am 16 18 mph 1013.8mb 84f 83f
10:12am 15 20 mph 1013.7mb 84f 83f
10:06am 15 20 mph 1013.6mb 84f 83f
10:00am 17 20 mph 1013.6mb 84f 83f
9:54am 17 21 mph 1013.5mb 84f 83f
9:48am 17 21 mph 1013.5mb 84f 83f
9:42am 18 21 mph 1013.4mb 84f 83f
9:36am 16 18 mph 1013.4mb 84f 83f
9:30am 16 20 mph 1013.3mb 84f 82f
9:24am  -  mph 1013.1mb 84f 82f
9:18am  -  mph 1012.8mb 84f 82f
9:12am  -  mph 1012.7mb 84f 82f
9:06am 16 18 mph 1012.7mb 84f 82f
9:00am 13 15 mph 1012.6mb 84f 81f
8:54am 13 15 mph 1012.7mb 84f 81f
8:48am 11 14 mph 1012.7mb 84f 81f
8:42am 11 13 mph 1012.7mb 83f 81f
8:36am 11 13 mph 1012.7mb 83f 80f